Flight Track Log - Related Links

Times and Time Zones

All times are in EDT time to prevent confusion due to time zone crossing. See the BJS542 flight status page for this flight to view local times or setup timezone preferences in your user account.

Time Position Orientation Groundspeed Altitude Reporting Facility
EDT Latitude Longitude Course Direction KTS MPH feet Rate Location/Type
Sat 04:09:33 PM 37.6333 -122.3667 90° East 167 192 1,300  Level Northern Cal TRACON
Sat 04:10:33 PM 37.6833 -122.3667 360° North 202 232 4,800 2,800 Climbing Northern Cal TRACON
Sat 04:11:33 PM 37.6667 -122.4333 252° West 266 306 6,900 2,400 Climbing Northern Cal TRACON
Sat 04:12:18 PM 37.6111 -122.4458 190° South 288 331 9,000 3,028 Climbing Oakland Center
Sat 04:13:20 PM 37.5314 -122.4381 176° South 308 354 12,300 3,024 Climbing Oakland Center
Sat 04:14:21 PM 37.4842 -122.3431 122° Southeast 323 372 15,200 2,754 Climbing Oakland Center
Sat 04:15:00 PM 37.1500 -121.9567 90° East  Level FlightAware Approximate
Sat 04:15:22 PM 37.4581 -122.2275 106° East 342 394 17,900  Level Oakland Center
Sat 04:16:24 PM 37.4303 -122.1061 106° East 359 413 20,300 2,390 Climbing Oakland Center
Sat 04:17:25 PM 37.4003 -121.9775 106° East 378 435 22,800 2,311 Climbing Oakland Center
Sat 04:18:26 PM 37.3700 -121.8464 106° East 389 448 25,000 2,000 Climbing Oakland Center
Sat 04:19:28 PM 37.3369 -121.6983 106° East 405 466 26,900 1,756 Climbing Oakland Center
Sat 04:20:29 PM 37.3044 -121.5542 106° East 421 484 28,600 1,672 Climbing Oakland Center
Sat 04:21:30 PM 37.2706 -121.4083 106° East 433 498 30,300 1,659 Climbing Oakland Center
Sat 04:22:32 PM 37.2350 -121.2586 107° East 445 512 32,000 1,317 Climbing Oakland Center
Sat 04:23:33 PM 37.1997 -121.1067 106° East 455 524 33,000 484 Climbing Oakland Center
Sat 04:24:36 PM 37.1533 -120.9117 107° East 486 559 33,000  Level Oakland Center
Sat 04:25:36 PM 37.1144 -120.7494 107° East 489 563 33,000  Level Oakland Center
Sat 04:26:37 PM 37.0747 -120.5861 107° East 490 564 33,000  Level Oakland Center
Sat 04:27:39 PM 37.0364 -120.4247 107° East 488 562 33,000  Level Oakland Center
Sat 04:28:41 PM 36.9969 -120.2658 107° East 482 555 33,000  Level Oakland Center
Sat 04:29:41 PM 36.9708 -120.1106 102° East 480 552 33,000  Level Oakland Center
Sat 04:30:43 PM 37.0031 -119.9192 78° East 471 542 33,000  Level Oakland Center
Sat 04:31:44 PM 37.0422 -119.7619 73° East 474 545 33,000  Level Oakland Center
Sat 04:32:46 PM 37.0800 -119.6064 73° East 468 539 33,000  Level Oakland Center
Sat 04:33:47 PM 37.1186 -119.4506 73° East 470 541 33,000  Level Oakland Center
Sat 04:34:48 PM 37.1567 -119.2942 73° East 470 541 33,000 -49 Level Oakland Center
Sat 04:35:50 PM 37.1933 -119.1389 73° East 467 537 32,900  Descending Oakland Center
Sat 04:36:51 PM 37.2314 -118.9831 73° East 467 537 33,000 49 Climbing Oakland Center
Sat 04:37:52 PM 37.2678 -118.8278 74° East 466 536 33,000  Level Oakland Center
Sat 04:38:54 PM 37.3061 -118.6731 73° East 465 535 33,000  Level Oakland Center
Sat 04:39:55 PM 37.3442 -118.5119 73° East 468 539 33,000  Level Oakland Center
Sat 04:40:56 PM 37.3783 -118.3508 75° East 475 547 33,000  Level Oakland Center
Sat 04:41:58 PM 37.3878 -118.1494 87° East 479 551 33,000  Level Oakland Center
Sat 04:42:59 PM 37.3972 -117.9825 86° East 480 552 33,000  Level Oakland Center
Sat 04:44:01 PM 37.4047 -117.8178 87° East 476 548 33,000  Level Oakland Center
Sat 04:45:02 PM 37.4133 -117.6536 86° East 473 544 33,000  Level Oakland Center
Sat 04:46:03 PM 37.4217 -117.4864 86° East 480 552 33,000  Level Oakland Center
Sat 04:47:05 PM 37.3975 -117.3256 101° East 476 548 33,000  Level Oakland Center
Sat 04:48:06 PM 37.3214 -117.1939 126° Southeast 469 540 33,000 -197 Level Oakland Center
Sat 04:49:07 PM 37.2147 -117.1003 145° Southeast 470 541 32,600 -1,082 Descending Oakland Center
Sat 04:50:08 PM 37.0844 -116.9928 147° Southeast 467 537 30,800 -1,268 Descending Oakland Center
Sat 04:51:10 PM 36.9778 -116.9003 145° Southeast 466 536 30,000 -390 Descending Oakland Center
Sat 04:52:11 PM 36.8725 -116.8114 146° Southeast 463 533 30,000  Level Oakland Center
Sat 04:53:13 PM 36.7711 -116.7164 143° Southeast 459 528 30,000 -49 Level Oakland Center
Sat 04:54:14 PM 36.6858 -116.5922 131° Southeast 464 534 29,900 -1,180 Descending Oakland Center
Sat 04:55:15 PM 36.5994 -116.4678 131° Southeast 471 542 27,600 -2,293 Descending Oakland Center
Sat 04:56:17 PM 36.5181 -116.3514 131° Southeast 461 531 25,200 -2,360 Descending Oakland Center
Sat 04:57:45 PM 36.3969 -116.1731 130° Southeast 431 496 21,700 -2,280 Descending Los Angeles Center
Sat 04:58:47 PM 36.3217 -116.0694 132° Southeast 408 470 19,500 -2,211 Descending Los Angeles Center
Sat 04:59:20 PM 36.2797 -116.0122 132° Southeast 385 443 18,200 -2,000 Descending Los Angeles Center
Sat 04:59:50 PM 36.2489 -115.9672 130° Southeast 368 423 17,400 -1,672 Descending Los Angeles Center
Sat 05:00:21 PM 36.2153 -115.9208 132° Southeast 358 412 16,500 -1,452 Descending Los Angeles Center
Sat 05:00:52 PM 36.1894 -115.8686 121° Southeast 333 383 15,900 -1,082 Descending Los Angeles Center
Sat 05:01:22 PM 36.1617 -115.8397 140° Southeast 313 360 15,400 -1,200 Descending Los Angeles Center
Sat 05:02:07 PM 36.1089 -115.7858 140° Southeast 316 364 14,400 -1,472 Descending Los Angeles Center
Sat 05:03:08 PM 36.0422 -115.7194 141° Southeast 309 356 12,800 -1,512 Descending Los Angeles Center
Sat 05:04:10 PM 35.9722 -115.6517 142° Southeast 301 346 11,300 -871 Descending Los Angeles Center
Sat 05:05:12 PM 35.9064 -115.5878 142° Southeast 301 346 11,000 -629 Descending Los Angeles Center
Sat 05:06:14 PM 35.8581 -115.5175 130° Southeast 309 356 10,000 -532 Descending Los Angeles Center
Sat 05:07:16 PM 35.8528 -115.4069 93° East 303 349 9,900 -1,161 Descending Los Angeles Center
Sat 05:08:18 PM 35.9175 -115.3542 33° Northeast 291 335 7,600 -1,935 Descending Los Angeles Center
Sat 05:09:20 PM 35.9903 -115.3281 16° North 281 323 5,900 -927 Descending Los Angeles Center
Sat 05:10:21 PM 36.0472 -115.3153 10° North 239 275 5,700 -244 Descending Los Angeles Center
Sat 05:11:23 PM 36.1047 -115.3128 North 219 252 5,400 -1,016 Descending Los Angeles Center
Sat 05:12:25 PM 36.0744 -115.2306 114° Southeast 203 234 3,600 -1,161 Descending Los Angeles Center
Sat 05:13:27 PM 36.0728 -115.1761 92° East 175 201 3,000 -732 Descending Los Angeles Center
Sat 05:14:28 PM 36.0736 -115.1369 88° East 129 148 2,100 -885 Descending Los Angeles Center

Login

Don't have an account? Register now (free) for customized features, flight alerts, and more!